Time;durP1;ratioP1;P1;durP2;ratioP2;P2;SDS_P1;SDS_P2;PMS_P1;PMS_P2;Temp;Humidity;BMP_temperature;BMP_pressure;BME280_temperature;BME280_humidity;BME280_pressure;Samples;Min_cycle;Max_cycle;Signal;HPM_P1;HPM_P2
2021/04/27 00:02:26;;;;;;;8.55;3.30;;;;;;;;;;4914036;29;20060;-69
2021/04/27 00:04:52;;;;;;;6.75;2.97;;;;;;;;;;4895741;29;20044;-73
2021/04/27 00:07:18;;;;;;;6.85;3.00;;;;;;;;;;4912273;29;20064;-73
2021/04/27 00:09:44;;;;;;;7.55;3.22;;;;;;;;;;4914526;29;20028;-67
2021/04/27 00:12:10;;;;;;;7.53;3.38;;;;;;;;;;4914411;29;20028;-73
2021/04/27 00:14:37;;;;;;;10.18;3.50;;;;;;;;;;4915958;29;20106;-74
2021/04/27 00:17:03;;;;;;;8.23;3.72;;;;;;;;;;4918114;29;20058;-74
2021/04/27 00:19:29;;;;;;;7.78;3.38;;;;;;;;;;4901031;29;20036;-72
2021/04/27 00:21:55;;;;;;;7.68;3.42;;;;;;;;;;4917867;29;20495;-71
2021/04/27 00:24:21;;;;;;;8.23;3.85;;;;;;;;;;4918143;29;20477;-73
2021/04/27 00:26:48;;;;;;;7.45;3.78;;;;;;;;;;4917912;29;20452;-74
2021/04/27 00:29:14;;;;;;;7.35;3.58;;;;;;;;;;4917997;29;20135;-74
2021/04/27 00:31:40;;;;;;;8.48;4.00;;;;;;;;;;4917980;29;20032;-73
2021/04/27 00:34:06;;;;;;;8.20;3.83;;;;;;;;;;4918140;29;20039;-74
2021/04/27 00:36:32;;;;;;;7.18;3.45;;;;;;;;;;4900904;29;20036;-74
2021/04/27 00:38:58;;;;;;;6.53;4.00;;;;;;;;;;4917903;29;20024;-73
2021/04/27 00:41:24;;;;;;;8.23;4.30;;;;;;;;;;4917769;29;20040;-68
2021/04/27 00:43:51;;;;;;;9.98;4.40;;;;;;;;;;4917739;29;20074;-74
2021/04/27 00:46:17;;;;;;;12.45;4.63;;;;;;;;;;4918014;29;20028;-74
2021/04/27 00:48:43;;;;;;;9.68;4.20;;;;;;;;;;4917702;29;20040;-74
2021/04/27 00:51:09;;;;;;;8.50;4.28;;;;;;;;;;4900006;29;20178;-73
2021/04/27 00:53:35;;;;;;;11.63;4.15;;;;;;;;;;4897470;29;20048;-74
2021/04/27 00:56:01;;;;;;;8.48;4.10;;;;;;;;;;4898724;29;20021;-73
2021/04/27 00:58:27;;;;;;;7.38;3.83;;;;;;;;;;4898147;29;20032;-74
2021/04/27 01:00:54;;;;;;;8.60;4.22;;;;;;;;;;4896088;29;20533;-70
2021/04/27 01:03:20;;;;;;;8.98;4.40;;;;;;;;;;4897439;29;20029;-73
2021/04/27 01:05:46;;;;;;;9.50;4.72;;;;;;;;;;4897019;29;20393;-74
2021/04/27 01:08:27;;;;;;;9.23;5.00;;;;;;;;;;4898473;29;20427;-74
2021/04/27 01:10:56;;;;;;;13.77;5.10;;;;;;;;;;4899067;29;20039;-74
2021/04/27 01:13:25;;;;;;;11.20;4.82;;;;;;;;;;4899450;29;20096;-74
2021/04/27 01:15:52;;;;;;;12.90;5.60;;;;;;;;;;4899549;29;20088;-74
2021/04/27 01:18:19;;;;;;;10.25;4.97;;;;;;;;;;4898369;29;20029;-74
2021/04/27 01:20:48;;;;;;;9.45;5.05;;;;;;;;;;4897869;29;20072;-74
2021/04/27 01:23:14;;;;;;;9.52;5.00;;;;;;;;;;4898429;29;20027;-74
2021/04/27 01:25:55;;;;;;;10.90;5.40;;;;;;;;;;4897898;29;20029;-75
2021/04/27 01:28:22;;;;;;;11.18;5.35;;;;;;;;;;4898206;29;20428;-75
2021/04/27 01:30:48;;;;;;;10.38;5.53;;;;;;;;;;4898278;29;20035;-74
2021/04/27 01:33:19;;;;;;;8.57;5.15;;;;;;;;;;4897986;29;20033;-75
2021/04/27 01:35:46;;;;;;;11.40;5.55;;;;;;;;;;4898074;29;20025;-75
2021/04/27 01:38:13;;;;;;;11.52;5.03;;;;;;;;;;4898098;29;20425;-74
2021/04/27 01:40:40;;;;;;;11.20;5.47;;;;;;;;;;4897830;29;20056;-74
2021/04/27 01:43:06;;;;;;;11.95;5.63;;;;;;;;;;4898075;29;20056;-77
2021/04/27 01:45:33;;;;;;;13.65;6.05;;;;;;;;;;4896576;29;20028;-75
2021/04/27 01:47:59;;;;;;;11.70;6.18;;;;;;;;;;4897884;29;20036;-75
2021/04/27 01:50:26;;;;;;;11.75;5.38;;;;;;;;;;4897909;29;20080;-75
2021/04/27 01:52:52;;;;;;;9.32;5.28;;;;;;;;;;4906418;29;20049;-75
2021/04/27 01:55:19;;;;;;;11.05;5.32;;;;;;;;;;4916048;29;20039;-75
2021/04/27 01:57:46;;;;;;;14.73;5.07;;;;;;;;;;4915489;29;20028;-76
2021/04/27 02:00:14;;;;;;;9.85;5.18;;;;;;;;;;4916379;29;20493;-74
2021/04/27 02:02:41;;;;;;;9.90;5.45;;;;;;;;;;4916439;29;20385;-73
2021/04/27 02:05:07;;;;;;;9.60;5.03;;;;;;;;;;4916333;29;20032;-75
2021/04/27 02:07:34;;;;;;;13.02;5.40;;;;;;;;;;4916241;29;20114;-75
2021/04/27 02:10:08;;;;;;;12.05;5.60;;;;;;;;;;4916228;29;20024;-73
2021/04/27 02:12:36;;;;;;;13.65;5.22;;;;;;;;;;4916241;29;20087;-70
2021/04/27 02:15:02;;;;;;;11.95;5.57;;;;;;;;;;4916514;29;20091;-73
2021/04/27 02:17:38;;;;;;;11.82;4.97;;;;;;;;;;4915958;29;20035;-75
2021/04/27 02:20:04;;;;;;;9.98;5.18;;;;;;;;;;4916044;29;20028;-72
2021/04/27 02:22:31;;;;;;;10.00;5.22;;;;;;;;;;4915855;29;20040;-75
2021/04/27 02:25:01;;;;;;;12.63;5.20;;;;;;;;;;4916147;29;20102;-73
2021/04/27 02:27:29;;;;;;;14.02;5.72;;;;;;;;;;4915894;29;20036;-69
2021/04/27 02:29:56;;;;;;;13.32;5.18;;;;;;;;;;4915867;29;20167;-73
2021/04/27 02:32:22;;;;;;;11.07;5.55;;;;;;;;;;4915823;29;20103;-75
2021/04/27 02:34:48;;;;;;;9.75;5.50;;;;;;;;;;4916068;29;20036;-67
2021/04/27 02:37:15;;;;;;;12.30;5.65;;;;;;;;;;4915246;29;20103;-70
2021/04/27 02:39:42;;;;;;;11.02;5.97;;;;;;;;;;4898360;29;20444;-74
2021/04/27 02:42:08;;;;;;;11.65;5.40;;;;;;;;;;4915686;29;20055;-75
2021/04/27 02:44:35;;;;;;;12.00;5.38;;;;;;;;;;4915333;29;20032;-75
2021/04/27 02:47:01;;;;;;;14.13;5.72;;;;;;;;;;4915697;29;20032;-74
2021/04/27 02:49:27;;;;;;;13.18;5.65;;;;;;;;;;4898251;29;20087;-73
2021/04/27 02:51:53;;;;;;;13.00;5.32;;;;;;;;;;4915098;29;20047;-75
2021/04/27 02:54:19;;;;;;;11.65;5.45;;;;;;;;;;4915401;29;20404;-73
2021/04/27 02:56:46;;;;;;;10.10;5.40;;;;;;;;;;4915356;29;20032;-76
2021/04/27 02:59:12;;;;;;;12.98;6.13;;;;;;;;;;4915256;29;20031;-76
2021/04/27 03:01:38;;;;;;;13.27;5.82;;;;;;;;;;4915198;29;20126;-74
2021/04/27 03:04:04;;;;;;;16.00;6.18;;;;;;;;;;4915343;29;20083;-75
2021/04/27 03:06:30;;;;;;;12.55;6.80;;;;;;;;;;4915232;29;20480;-75
2021/04/27 03:08:56;;;;;;;13.18;6.97;;;;;;;;;;4915086;29;20035;-75
2021/04/27 03:11:23;;;;;;;11.55;6.03;;;;;;;;;;4915017;29;20063;-74
2021/04/27 03:13:52;;;;;;;12.73;6.28;;;;;;;;;;4914997;29;20116;-75
2021/04/27 03:16:18;;;;;;;12.95;6.43;;;;;;;;;;4897626;29;20507;-75
2021/04/27 03:18:44;;;;;;;12.27;6.47;;;;;;;;;;4915304;29;20032;-75
2021/04/27 03:21:11;;;;;;;14.02;6.95;;;;;;;;;;4897573;29;20040;-61
2021/04/27 03:23:37;;;;;;;11.70;6.38;;;;;;;;;;4914846;29;20029;-75
2021/04/27 03:26:03;;;;;;;13.60;6.93;;;;;;;;;;4915103;29;20039;-73
2021/04/27 03:28:29;;;;;;;13.30;6.35;;;;;;;;;;4914631;29;20124;-71
2021/04/27 03:30:55;;;;;;;14.00;6.93;;;;;;;;;;4915046;29;20167;-75
2021/04/27 03:33:21;;;;;;;13.98;6.80;;;;;;;;;;4897881;29;20028;-73
2021/04/27 03:35:47;;;;;;;12.77;7.35;;;;;;;;;;4914833;29;20036;-71
2021/04/27 03:38:14;;;;;;;22.00;7.05;;;;;;;;;;4914980;29;20028;-75
2021/04/27 03:40:40;;;;;;;13.63;7.82;;;;;;;;;;4914509;29;20113;-75
2021/04/27 03:43:07;;;;;;;15.23;7.80;;;;;;;;;;4897663;29;20044;-75
2021/04/27 03:45:36;;;;;;;16.60;7.90;;;;;;;;;;4914379;29;20027;-75
2021/04/27 03:48:12;;;;;;;17.25;8.00;;;;;;;;;;4914658;29;20080;-76
2021/04/27 03:50:39;;;;;;;15.63;7.75;;;;;;;;;;4914676;29;20099;-70
2021/04/27 03:53:05;;;;;;;18.17;9.15;;;;;;;;;;4914349;29;20059;-75
2021/04/27 03:55:31;;;;;;;14.98;8.20;;;;;;;;;;4915023;29;20504;-76
2021/04/27 03:57:57;;;;;;;19.33;8.68;;;;;;;;;;4914517;29;20040;-75
2021/04/27 04:00:23;;;;;;;18.58;8.80;;;;;;;;;;4897636;29;20130;-75
2021/04/27 04:02:49;;;;;;;22.60;9.02;;;;;;;;;;4914376;29;20099;-75
2021/04/27 04:05:15;;;;;;;18.40;8.77;;;;;;;;;;4914769;29;20059;-76
2021/04/27 04:07:42;;;;;;;16.75;8.52;;;;;;;;;;4914512;29;20105;-76
2021/04/27 04:10:10;;;;;;;14.40;7.57;;;;;;;;;;4914376;29;20027;-76
2021/04/27 04:12:39;;;;;;;13.35;8.13;;;;;;;;;;4914228;29;20489;-75
2021/04/27 04:15:06;;;;;;;15.27;8.05;;;;;;;;;;4914501;29;20067;-76
2021/04/27 04:17:32;;;;;;;15.10;7.85;;;;;;;;;;4914138;29;20033;-76
2021/04/27 04:19:58;;;;;;;15.98;8.00;;;;;;;;;;4914600;29;20055;-77
2021/04/27 04:22:25;;;;;;;15.38;7.32;;;;;;;;;;4914325;29;20057;-76
2021/04/27 04:24:51;;;;;;;15.82;7.25;;;;;;;;;;4914469;29;20071;-72
2021/04/27 04:27:17;;;;;;;13.15;7.60;;;;;;;;;;4897370;29;20039;-76
2021/04/27 04:29:43;;;;;;;13.07;7.18;;;;;;;;;;4914288;29;20025;-76
2021/04/27 04:32:13;;;;;;;16.65;8.13;;;;;;;;;;4914253;29;20036;-74
2021/04/27 04:34:39;;;;;;;16.23;8.48;;;;;;;;;;4914333;29;20034;-75
2021/04/27 04:37:05;;;;;;;19.92;10.88;;;;;;;;;;4914582;29;20035;-75
2021/04/27 04:39:31;;;;;;;21.63;9.90;;;;;;;;;;4914156;29;20552;-76
2021/04/27 04:41:57;;;;;;;21.63;11.40;;;;;;;;;;4914223;29;20613;-62
2021/04/27 04:44:23;;;;;;;21.63;11.95;;;;;;;;;;4913799;29;20072;-74
2021/04/27 04:46:50;;;;;;;19.13;10.52;;;;;;;;;;4914008;29;20032;-69
2021/04/27 04:49:16;;;;;;;24.27;12.10;;;;;;;;;;4914278;29;20035;-68
2021/04/27 04:51:42;;;;;;;24.65;13.07;;;;;;;;;;4913721;29;20036;-68
2021/04/27 04:54:08;;;;;;;27.15;13.30;;;;;;;;;;4896639;29;20047;-75
2021/04/27 04:56:34;;;;;;;30.40;14.27;;;;;;;;;;4914122;29;20043;-75
2021/04/27 04:59:00;;;;;;;26.48;14.13;;;;;;;;;;4913753;29;20039;-75
2021/04/27 05:01:26;;;;;;;27.73;15.00;;;;;;;;;;4916229;29;20034;-74
2021/04/27 05:03:52;;;;;;;28.60;16.25;;;;;;;;;;4917501;29;20028;-76
2021/04/27 05:06:20;;;;;;;31.30;16.20;;;;;;;;;;4917288;29;20028;-74
2021/04/27 05:08:48;;;;;;;31.15;16.90;;;;;;;;;;4917506;29;20115;-75
2021/04/27 05:11:15;;;;;;;33.72;18.05;;;;;;;;;;4917205;29;20521;-76
2021/04/27 05:13:41;;;;;;;38.15;18.45;;;;;;;;;;4917082;29;20131;-74
2021/04/27 05:16:10;;;;;;;35.20;18.67;;;;;;;;;;4916952;29;20039;-72
2021/04/27 05:18:39;;;;;;;36.55;19.30;;;;;;;;;;4917123;29;20032;-75
2021/04/27 05:21:06;;;;;;;38.00;20.00;;;;;;;;;;4899597;29;20075;-68
2021/04/27 05:23:32;;;;;;;40.85;21.67;;;;;;;;;;4917122;29;20031;-75
2021/04/27 05:25:58;;;;;;;49.83;22.88;;;;;;;;;;4917129;29;20036;-75
2021/04/27 05:28:25;;;;;;;46.70;21.83;;;;;;;;;;4916966;29;20032;-76
2021/04/27 05:30:51;;;;;;;32.75;17.75;;;;;;;;;;4916844;29;20083;-74
2021/04/27 05:33:17;;;;;;;34.63;18.77;;;;;;;;;;4916535;29;20098;-75
2021/04/27 05:35:43;;;;;;;37.28;17.55;;;;;;;;;;4916728;29;20029;-75
2021/04/27 05:38:10;;;;;;;31.23;18.83;;;;;;;;;;4916988;29;20044;-76
2021/04/27 05:40:36;;;;;;;33.95;18.80;;;;;;;;;;4916726;29;20035;-76
2021/04/27 05:43:03;;;;;;;28.90;15.38;;;;;;;;;;4916548;29;20557;-75
2021/04/27 05:45:29;;;;;;;30.58;16.67;;;;;;;;;;4916270;29;20088;-75
2021/04/27 05:47:55;;;;;;;30.13;16.48;;;;;;;;;;4916425;29;20495;-75
2021/04/27 05:50:21;;;;;;;23.75;15.13;;;;;;;;;;4915685;29;20526;-75
2021/04/27 05:52:47;;;;;;;23.85;14.95;;;;;;;;;;4915671;29;20448;-73
2021/04/27 05:55:14;;;;;;;26.17;16.83;;;;;;;;;;4916413;29;20072;-74
2021/04/27 05:57:40;;;;;;;23.73;14.85;;;;;;;;;;4916448;29;20092;-74
2021/04/27 06:00:07;;;;;;;25.75;15.85;;;;;;;;;;4916045;29;20078;-61
2021/04/27 06:02:33;;;;;;;29.60;17.15;;;;;;;;;;4915779;29;20039;-62
2021/04/27 06:04:59;;;;;;;23.67;16.25;;;;;;;;;;4916223;29;20040;-60
2021/04/27 06:07:25;;;;;;;27.80;16.77;;;;;;;;;;4923485;29;20034;-60
2021/04/27 06:09:51;;;;;;;30.38;17.25;;;;;;;;;;4932287;29;20118;-65
2021/04/27 06:12:17;;;;;;;24.88;15.43;;;;;;;;;;4930805;29;20114;-70
2021/04/27 06:14:43;;;;;;;29.17;15.95;;;;;;;;;;4934007;29;20479;-67
2021/04/27 06:17:09;;;;;;;27.65;17.38;;;;;;;;;;4932013;29;20036;-70
2021/04/27 06:19:35;;;;;;;30.38;18.27;;;;;;;;;;4918985;29;20395;-61
2021/04/27 06:22:01;;;;;;;33.75;19.95;;;;;;;;;;4917342;29;20506;-75
2021/04/27 06:24:27;;;;;;;40.45;23.23;;;;;;;;;;4914673;29;20469;-69
2021/04/27 06:26:53;;;;;;;33.65;22.05;;;;;;;;;;4914597;29;20028;-76
2021/04/27 06:29:19;;;;;;;33.83;21.92;;;;;;;;;;4914404;29;20495;-70
2021/04/27 06:31:45;;;;;;;36.72;22.50;;;;;;;;;;4914288;29;20036;-69
2021/04/27 06:34:11;;;;;;;40.00;23.60;;;;;;;;;;4914263;29;20024;-80
2021/04/27 06:36:37;;;;;;;38.83;26.10;;;;;;;;;;4914367;29;20028;-71
2021/04/27 06:39:04;;;;;;;38.92;25.60;;;;;;;;;;4914392;29;20499;-71
2021/04/27 06:41:32;;;;;;;38.92;25.75;;;;;;;;;;4912077;29;20511;-70
2021/04/27 06:43:58;;;;;;;44.17;25.92;;;;;;;;;;4915038;29;20043;-71
2021/04/27 06:46:24;;;;;;;38.38;22.92;;;;;;;;;;4914463;29;20052;-69
2021/04/27 06:48:51;;;;;;;34.63;20.52;;;;;;;;;;4916573;29;20068;-69
2021/04/27 06:51:18;;;;;;;33.53;21.98;;;;;;;;;;4913883;29;20028;-70
2021/04/27 06:53:45;;;;;;;34.30;21.38;;;;;;;;;;4914069;29;20056;-71
2021/04/27 06:56:11;;;;;;;31.40;21.15;;;;;;;;;;4914510;29;20134;-71
2021/04/27 06:58:37;;;;;;;38.75;23.77;;;;;;;;;;4914160;29;20492;-65
2021/04/27 07:01:04;;;;;;;38.15;23.17;;;;;;;;;;4913255;29;20159;-68
2021/04/27 07:03:30;;;;;;;35.50;21.63;;;;;;;;;;4914218;29;20024;-70
2021/04/27 07:05:56;;;;;;;32.60;23.08;;;;;;;;;;4914889;29;20039;-71
2021/04/27 07:08:22;;;;;;;35.25;25.77;;;;;;;;;;4914752;29;20388;-72
2021/04/27 07:10:50;;;;;;;39.97;27.67;;;;;;;;;;4917000;29;20088;-71
2021/04/27 07:13:16;;;;;;;49.95;32.28;;;;;;;;;;4914757;29;20035;-71
2021/04/27 07:15:42;;;;;;;45.67;33.15;;;;;;;;;;4913698;29;20068;-72
2021/04/27 07:18:08;;;;;;;43.72;30.98;;;;;;;;;;4897127;29;20475;-71
2021/04/27 07:20:34;;;;;;;42.53;29.00;;;;;;;;;;4914994;29;20719;-71
2021/04/27 07:23:00;;;;;;;40.53;28.00;;;;;;;;;;4914213;29;20036;-68
2021/04/27 07:25:26;;;;;;;41.58;28.20;;;;;;;;;;4896668;29;20828;-71
2021/04/27 07:27:53;;;;;;;34.25;23.90;;;;;;;;;;4914502;29;20029;-71
2021/04/27 07:30:21;;;;;;;31.67;22.08;;;;;;;;;;4914461;29;20063;-72
2021/04/27 07:32:47;;;;;;;30.60;22.40;;;;;;;;;;4914731;29;20020;-71
2021/04/27 07:35:13;;;;;;;35.22;24.63;;;;;;;;;;4897728;29;20115;-69
2021/04/27 07:37:39;;;;;;;31.63;20.52;;;;;;;;;;4914359;29;20039;-70
2021/04/27 07:40:06;;;;;;;31.13;22.17;;;;;;;;;;4914408;29;20032;-69
2021/04/27 07:42:32;;;;;;;32.95;24.67;;;;;;;;;;4914713;29;20046;-69
2021/04/27 07:44:58;;;;;;;33.55;25.55;;;;;;;;;;4921726;29;20133;-74
2021/04/27 07:47:24;;;;;;;39.63;28.15;;;;;;;;;;4933574;29;20042;-72
2021/04/27 07:49:50;;;;;;;36.42;26.98;;;;;;;;;;4922322;29;20800;-71
2021/04/27 07:52:16;;;;;;;42.20;28.45;;;;;;;;;;4893284;29;20076;-70
2021/04/27 07:54:43;;;;;;;38.42;28.02;;;;;;;;;;4895627;29;20029;-70
2021/04/27 07:57:09;;;;;;;38.78;28.70;;;;;;;;;;4895523;29;20095;-70
2021/04/27 07:59:35;;;;;;;36.17;27.98;;;;;;;;;;4895168;29;20028;-64
2021/04/27 08:02:01;;;;;;;37.97;28.75;;;;;;;;;;4894870;29;20077;-64
2021/04/27 08:04:27;;;;;;;37.83;29.85;;;;;;;;;;4910176;29;20031;-68
2021/04/27 08:06:53;;;;;;;37.15;27.45;;;;;;;;;;4894984;29;20503;-66
2021/04/27 08:09:19;;;;;;;37.95;26.73;;;;;;;;;;4895700;29;20029;-66
2021/04/27 08:11:45;;;;;;;40.03;29.20;;;;;;;;;;4902844;29;20545;-71
2021/04/27 08:14:13;;;;;;;43.92;33.05;;;;;;;;;;4896162;29;20039;-70
2021/04/27 08:16:40;;;;;;;37.63;27.80;;;;;;;;;;4894884;29;20025;-68
2021/04/27 08:19:06;;;;;;;34.55;24.80;;;;;;;;;;4895306;29;20036;-73
2021/04/27 08:21:33;;;;;;;36.03;26.08;;;;;;;;;;4894328;29;20127;-70
2021/04/27 08:23:59;;;;;;;38.85;28.02;;;;;;;;;;4904051;29;20025;-74
2021/04/27 08:26:26;;;;;;;36.30;25.92;;;;;;;;;;4907541;29;20039;-72
2021/04/27 08:28:52;;;;;;;29.63;22.38;;;;;;;;;;4894742;29;20035;-73
2021/04/27 08:31:18;;;;;;;35.92;26.55;;;;;;;;;;4894241;29;20040;-73
2021/04/27 08:33:44;;;;;;;33.17;22.67;;;;;;;;;;4894276;29;20055;-73
2021/04/27 08:36:10;;;;;;;33.40;25.45;;;;;;;;;;4895721;29;20045;-73
2021/04/27 08:38:36;;;;;;;33.13;25.63;;;;;;;;;;4896762;29;20100;-71
2021/04/27 08:41:03;;;;;;;36.35;26.85;;;;;;;;;;4897442;29;20041;-75
2021/04/27 08:43:29;;;;;;;33.83;25.80;;;;;;;;;;4897270;29;20453;-69
2021/04/27 08:45:55;;;;;;;35.25;27.30;;;;;;;;;;4898493;29;20036;-71
2021/04/27 08:48:22;;;;;;;33.90;26.70;;;;;;;;;;4898202;29;20056;-70
2021/04/27 08:50:49;;;;;;;34.03;24.85;;;;;;;;;;4898071;29;20059;-68
2021/04/27 08:53:15;;;;;;;31.27;24.50;;;;;;;;;;4910179;29;20052;-69
2021/04/27 08:55:41;;;;;;;37.40;26.70;;;;;;;;;;4917389;29;20032;-73
2021/04/27 08:58:08;;;;;;;35.65;26.73;;;;;;;;;;4916786;29;20064;-74
2021/04/27 09:00:34;;;;;;;35.60;27.20;;;;;;;;;;4917020;29;20139;-69
2021/04/27 09:03:02;;;;;;;40.45;29.20;;;;;;;;;;4917155;29;20024;-72
2021/04/27 09:05:28;;;;;;;34.63;24.58;;;;;;;;;;4917278;29;20030;-72
2021/04/27 09:07:56;;;;;;;31.50;23.50;;;;;;;;;;4916580;29;20024;-71
2021/04/27 09:10:24;;;;;;;33.05;22.33;;;;;;;;;;4916654;29;20042;-70
2021/04/27 09:12:55;;;;;;;27.75;19.70;;;;;;;;;;4914307;29;20111;-71
2021/04/27 09:15:27;;;;;;;28.27;20.40;;;;;;;;;;4916505;29;20107;-71
2021/04/27 09:17:53;;;;;;;31.85;20.75;;;;;;;;;;4916822;29;20488;-70
2021/04/27 09:20:20;;;;;;;30.13;20.83;;;;;;;;;;4916167;29;20544;-71
2021/04/27 09:22:46;;;;;;;29.85;19.73;;;;;;;;;;4916261;29;20032;-72
2021/04/27 09:25:13;;;;;;;28.67;19.33;;;;;;;;;;4916864;29;20024;-71
2021/04/27 09:27:50;;;;;;;48.65;31.48;;;;;;;;;;4916984;29;20099;-68
2021/04/27 09:30:17;;;;;;;35.80;24.10;;;;;;;;;;4916853;29;20063;-71
2021/04/27 09:32:46;;;;;;;26.65;18.40;;;;;;;;;;4916584;29;20108;-71
2021/04/27 09:35:22;;;;;;;27.33;19.33;;;;;;;;;;4916781;29;20036;-72
2021/04/27 09:38:07;;;;;;;35.17;23.83;;;;;;;;;;4916899;29;20032;-73
2021/04/27 09:40:33;;;;;;;31.55;19.60;;;;;;;;;;4916175;29;20510;-73
2021/04/27 09:43:06;;;;;;;29.13;19.15;;;;;;;;;;4915964;29;20036;-68
2021/04/27 09:45:52;;;;;;;29.77;19.30;;;;;;;;;;4916468;29;20466;-72
2021/04/27 09:48:33;;;;;;;27.70;18.05;;;;;;;;;;4912128;29;20063;-70
2021/04/27 09:51:04;;;;;;;30.00;21.08;;;;;;;;;;4899309;29;20413;-68
2021/04/27 09:53:49;;;;;;;30.80;20.17;;;;;;;;;;4915820;29;20385;-64
2021/04/27 09:56:34;;;;;;;30.88;21.85;;;;;;;;;;4916423;29;20052;-71
2021/04/27 09:59:05;;;;;;;32.83;22.73;;;;;;;;;;4915846;29;20024;-70
2021/04/27 10:01:31;;;;;;;28.60;18.88;;;;;;;;;;4915766;29;20127;-70
2021/04/27 10:03:58;;;;;;;27.83;18.52;;;;;;;;;;4915813;29;20028;-73
2021/04/27 10:06:24;;;;;;;28.02;20.73;;;;;;;;;;4915709;29;20170;-70
2021/04/27 10:08:50;;;;;;;32.50;21.13;;;;;;;;;;4915659;29;20032;-70
2021/04/27 10:11:17;;;;;;;41.20;27.15;;;;;;;;;;4915590;29;20035;-68
2021/04/27 10:13:43;;;;;;;38.38;23.20;;;;;;;;;;4915769;29;20029;-66
2021/04/27 10:16:10;;;;;;;35.20;22.38;;;;;;;;;;4914280;29;20511;-66
2021/04/27 10:18:36;;;;;;;33.45;22.65;;;;;;;;;;4914260;29;20384;-70
2021/04/27 10:21:05;;;;;;;36.70;24.10;;;;;;;;;;4914808;29;20528;-70
2021/04/27 10:23:31;;;;;;;37.13;27.00;;;;;;;;;;4915354;29;20028;-71
2021/04/27 10:25:57;;;;;;;33.80;24.85;;;;;;;;;;4915026;29;20032;-66
2021/04/27 10:28:23;;;;;;;39.28;28.65;;;;;;;;;;4914594;29;20028;-72
2021/04/27 10:30:49;;;;;;;38.47;28.88;;;;;;;;;;4915079;29;20063;-71
2021/04/27 10:33:17;;;;;;;42.90;28.73;;;;;;;;;;4915251;29;20087;-71
2021/04/27 10:35:44;;;;;;;46.00;32.92;;;;;;;;;;4915272;29;20056;-66
2021/04/27 10:38:16;;;;;;;43.40;31.23;;;;;;;;;;4915452;29;20388;-69
2021/04/27 10:41:00;;;;;;;41.50;29.42;;;;;;;;;;4915136;29;20062;-70
2021/04/27 10:43:35;;;;;;;40.90;27.70;;;;;;;;;;4915150;29;20496;-69
2021/04/27 10:46:01;;;;;;;31.02;22.70;;;;;;;;;;4915068;29;20110;-69
2021/04/27 10:48:28;;;;;;;37.70;25.80;;;;;;;;;;4915209;29;20146;-69
2021/04/27 10:50:54;;;;;;;41.65;27.02;;;;;;;;;;4897766;29;20028;-68
2021/04/27 10:53:29;;;;;;;33.17;22.83;;;;;;;;;;4914454;29;20051;-69
2021/04/27 10:55:55;;;;;;;29.48;20.27;;;;;;;;;;4914665;29;20091;-70
2021/04/27 10:58:40;;;;;;;29.05;20.02;;;;;;;;;;4914359;29;20031;-70
2021/04/27 11:01:18;;;;;;;28.00;18.38;;;;;;;;;;4921723;29;20527;-70
2021/04/27 11:03:48;;;;;;;29.42;17.88;;;;;;;;;;4925193;29;20069;-70
2021/04/27 11:06:15;;;;;;;29.20;19.83;;;;;;;;;;4897205;29;20028;-71
2021/04/27 11:08:45;;;;;;;31.30;21.20;;;;;;;;;;4913827;29;20031;-68
2021/04/27 11:11:18;;;;;;;35.53;22.25;;;;;;;;;;4914167;29;20064;-71
2021/04/27 11:13:45;;;;;;;29.52;20.45;;;;;;;;;;4912208;29;20027;-68
2021/04/27 11:16:37;;;;;;;34.38;22.10;;;;;;;;;;4914189;29;20028;-65
2021/04/27 11:19:21;;;;;;;28.83;19.95;;;;;;;;;;4913127;29;20063;-71
2021/04/27 11:21:48;;;;;;;37.85;25.48;;;;;;;;;;4912421;29;20040;-68
2021/04/27 11:24:43;;;;;;;55.95;37.70;;;;;;;;;;4911850;29;20027;-71
2021/04/27 11:27:22;;;;;;;44.75;29.40;;;;;;;;;;4847734;29;20525;-70
2021/04/27 11:29:54;;;;;;;23.95;16.85;;;;;;;;;;4845688;29;20038;-71
2021/04/27 11:32:20;;;;;;;30.13;20.67;;;;;;;;;;4847238;29;20505;-70
2021/04/27 11:34:50;;;;;;;20.02;14.43;;;;;;;;;;4845747;29;20386;-70
2021/04/27 11:37:27;;;;;;;26.30;16.45;;;;;;;;;;4845730;29;20141;-69
2021/04/27 11:39:54;;;;;;;24.02;17.85;;;;;;;;;;4845852;29;20085;-71
2021/04/27 11:42:32;;;;;;;25.95;18.30;;;;;;;;;;4848874;29;20598;-69
2021/04/27 11:45:00;;;;;;;23.60;16.95;;;;;;;;;;4845615;29;20052;-67
2021/04/27 11:47:32;;;;;;;26.10;19.20;;;;;;;;;;4845112;29;20030;-70
2021/04/27 11:50:02;;;;;;;26.63;18.98;;;;;;;;;;4844695;29;20405;-69
2021/04/27 11:52:38;;;;;;;29.63;19.70;;;;;;;;;;4846490;29;20537;-68
2021/04/27 11:55:09;;;;;;;25.17;19.10;;;;;;;;;;4845645;29;20121;-69
2021/04/27 11:57:36;;;;;;;24.40;17.73;;;;;;;;;;4846772;29;20046;-71
2021/04/27 12:00:02;;;;;;;26.92;17.58;;;;;;;;;;4847435;29;20038;-67
2021/04/27 12:02:31;;;;;;;27.40;18.35;;;;;;;;;;4852431;29;20034;-66
2021/04/27 12:04:58;;;;;;;23.13;17.48;;;;;;;;;;4912293;29;20035;-70
2021/04/27 12:07:28;;;;;;;41.30;24.67;;;;;;;;;;4912568;29;20028;-71
2021/04/27 12:09:55;;;;;;;27.10;18.27;;;;;;;;;;4915875;29;20055;-65
2021/04/27 12:12:22;;;;;;;29.20;19.50;;;;;;;;;;4915860;29;20055;-70
2021/04/27 12:14:52;;;;;;;26.40;19.30;;;;;;;;;;4917792;29;20035;-69
2021/04/27 12:17:31;;;;;;;27.33;19.70;;;;;;;;;;4917889;29;20088;-70
2021/04/27 12:20:03;;;;;;;34.38;24.60;;;;;;;;;;4918111;29;20028;-70
2021/04/27 12:22:29;;;;;;;29.92;21.23;;;;;;;;;;4900952;29;20420;-71
2021/04/27 12:24:55;;;;;;;26.25;19.38;;;;;;;;;;4917872;29;20032;-71
2021/04/27 12:27:23;;;;;;;27.08;19.50;;;;;;;;;;4920886;29;20036;-71
2021/04/27 12:30:17;;;;;;;24.92;19.00;;;;;;;;;;4924426;29;20028;-72
2021/04/27 12:32:48;;;;;;;29.85;22.25;;;;;;;;;;4906500;29;20077;-67
2021/04/27 12:35:17;;;;;;;35.35;24.17;;;;;;;;;;4926415;29;20035;-71
2021/04/27 12:37:44;;;;;;;29.73;20.20;;;;;;;;;;4923392;29;20036;-67
2021/04/27 12:40:16;;;;;;;30.45;20.23;;;;;;;;;;4926760;29;20032;-68
2021/04/27 12:42:46;;;;;;;30.83;20.33;;;;;;;;;;4927820;29;20027;-71
2021/04/27 12:45:12;;;;;;;24.70;18.48;;;;;;;;;;4926971;29;20205;-69
2021/04/27 12:47:39;;;;;;;26.80;18.42;;;;;;;;;;4925675;29;20103;-72
2021/04/27 12:50:08;;;;;;;26.33;19.30;;;;;;;;;;4927189;29;20043;-64
2021/04/27 12:52:36;;;;;;;23.88;19.23;;;;;;;;;;4928861;29;20515;-73
2021/04/27 12:55:02;;;;;;;30.75;21.50;;;;;;;;;;4935951;29;20051;-70
2021/04/27 12:57:28;;;;;;;30.77;22.88;;;;;;;;;;4935613;29;20028;-65
2021/04/27 13:00:15;;;;;;;31.65;20.85;;;;;;;;;;4933947;29;20024;-70
2021/04/27 13:02:41;;;;;;;32.03;21.35;;;;;;;;;;4934347;29;20028;-70
2021/04/27 13:05:10;;;;;;;29.05;21.10;;;;;;;;;;4931930;29;20114;-68
2021/04/27 13:07:37;;;;;;;28.70;20.30;;;;;;;;;;4935712;29;20132;-62
2021/04/27 13:10:06;;;;;;;36.58;25.10;;;;;;;;;;4935402;29;20071;-68
2021/04/27 13:12:33;;;;;;;26.38;18.77;;;;;;;;;;4935537;29;20034;-68
2021/04/27 13:15:00;;;;;;;35.40;24.15;;;;;;;;;;4935040;29;20080;-66
2021/04/27 13:17:26;;;;;;;45.63;28.60;;;;;;;;;;4935522;29;20395;-70
2021/04/27 13:19:54;;;;;;;26.13;18.65;;;;;;;;;;4935439;29;20030;-69
2021/04/27 13:22:26;;;;;;;30.75;21.25;;;;;;;;;;4934022;29;20047;-64
2021/04/27 13:24:53;;;;;;;62.10;35.05;;;;;;;;;;4935460;29;20043;-64
2021/04/27 13:27:23;;;;;;;50.28;30.33;;;;;;;;;;4935162;29;20534;-66
2021/04/27 13:30:00;;;;;;;31.88;21.00;;;;;;;;;;4934933;29;20031;-63
2021/04/27 13:32:26;;;;;;;37.72;23.58;;;;;;;;;;4930638;29;20028;-69
2021/04/27 13:34:52;;;;;;;42.33;27.98;;;;;;;;;;4934730;29;20032;-66
2021/04/27 13:37:18;;;;;;;26.60;17.83;;;;;;;;;;4935139;29;20460;-69
2021/04/27 13:39:44;;;;;;;29.48;21.08;;;;;;;;;;4935004;29;20028;-68
2021/04/27 13:42:10;;;;;;;28.63;19.10;;;;;;;;;;4934802;29;20039;-69
2021/04/27 13:44:37;;;;;;;36.25;22.30;;;;;;;;;;4934528;29;20023;-67
2021/04/27 13:47:04;;;;;;;35.83;22.77;;;;;;;;;;4935047;29;20032;-66
2021/04/27 13:49:32;;;;;;;33.38;22.00;;;;;;;;;;4934822;29;20495;-70
2021/04/27 13:52:01;;;;;;;27.40;19.17;;;;;;;;;;4934444;29;20040;-65
2021/04/27 13:54:27;;;;;;;28.40;19.63;;;;;;;;;;4934487;29;20042;-73
2021/04/27 13:56:54;;;;;;;25.70;18.52;;;;;;;;;;4917718;29;20107;-70
2021/04/27 13:59:20;;;;;;;23.88;16.90;;;;;;;;;;4934441;29;20058;-70
2021/04/27 14:01:47;;;;;;;27.98;18.30;;;;;;;;;;4933922;29;20420;-69
2021/04/27 14:04:13;;;;;;;29.02;18.98;;;;;;;;;;4933214;29;20023;-63
2021/04/27 14:06:40;;;;;;;37.85;24.00;;;;;;;;;;4934677;29;20031;-69
2021/04/27 14:09:06;;;;;;;25.75;17.20;;;;;;;;;;4934114;29;20028;-65
2021/04/27 14:11:32;;;;;;;27.63;19.55;;;;;;;;;;4934674;29;20379;-66
2021/04/27 14:13:58;;;;;;;27.13;18.88;;;;;;;;;;4934331;29;20027;-73
2021/04/27 14:16:24;;;;;;;41.20;25.23;;;;;;;;;;4929490;29;20028;-75
2021/04/27 14:18:50;;;;;;;33.00;20.10;;;;;;;;;;4934371;29;20040;-63
2021/04/27 14:21:16;;;;;;;62.17;32.63;;;;;;;;;;4934037;29;20115;-67
2021/04/27 14:23:42;;;;;;;23.73;17.10;;;;;;;;;;4933834;29;20029;-76
2021/04/27 14:26:08;;;;;;;22.27;14.50;;;;;;;;;;4934455;29;20431;-70
2021/04/27 14:28:34;;;;;;;70.00;34.75;;;;;;;;;;4934094;29;20020;-72